Time;durP1;ratioP1;P1;durP2;ratioP2;P2;SDS_P1;SDS_P2;PMS_P1;PMS_P2;Temp;Humidity;BMP_temperature;BMP_pressure;BME280_temperature;BME280_humidity;BME280_pressure;Samples;Min_cycle;Max_cycle;Signal;HPM_P1;HPM_P2
2023/04/17 00:01:39;;;;;;;18.63;17.27;;;;;;;;;;4995747;28;20464;-69
2023/04/17 00:04:09;;;;;;;16.60;15.60;;;;;;;;;;4995416;28;20035;-69
2023/04/17 00:06:36;;;;;;;17.00;16.00;;;;;;;;;;4995728;28;20036;-69
2023/04/17 00:09:01;;;;;;;18.02;16.92;;;;;;;;;;4994739;28;20033;-69
2023/04/17 00:11:26;;;;;;;18.67;17.30;;;;;;;;;;4995492;28;20048;-69
2023/04/17 00:13:52;;;;;;;19.77;18.48;;;;;;;;;;4996884;28;20064;-70
2023/04/17 00:16:17;;;;;;;18.13;17.00;;;;;;;;;;4993651;28;20030;-69
2023/04/17 00:18:42;;;;;;;17.25;16.25;;;;;;;;;;4991555;28;20045;-69
2023/04/17 00:21:08;;;;;;;17.00;15.98;;;;;;;;;;4994566;28;20045;-70
2023/04/17 00:23:33;;;;;;;17.08;16.08;;;;;;;;;;4996462;28;20065;-69
2023/04/17 00:25:59;;;;;;;18.10;16.98;;;;;;;;;;4993552;28;20057;-69
2023/04/17 00:28:24;;;;;;;17.35;16.20;;;;;;;;;;4997374;28;20169;-70
2023/04/17 00:30:49;;;;;;;16.00;15.07;;;;;;;;;;4993343;28;20031;-69
2023/04/17 00:33:15;;;;;;;16.25;15.15;;;;;;;;;;4994393;28;20030;-69
2023/04/17 00:35:40;;;;;;;16.40;15.27;;;;;;;;;;4980961;28;20030;-70
2023/04/17 00:38:08;;;;;;;15.57;14.65;;;;;;;;;;4993905;28;20359;-70
2023/04/17 00:40:33;;;;;;;17.23;16.13;;;;;;;;;;4994443;28;20034;-69
2023/04/17 00:43:00;;;;;;;16.75;15.73;;;;;;;;;;4994699;28;20480;-69
2023/04/17 00:45:25;;;;;;;17.50;16.25;;;;;;;;;;4993066;28;20038;-69
2023/04/17 00:47:51;;;;;;;20.05;18.75;;;;;;;;;;4993677;28;20406;-69
2023/04/17 00:50:17;;;;;;;17.85;16.65;;;;;;;;;;4996327;28;20109;-70
2023/04/17 00:52:43;;;;;;;17.27;15.82;;;;;;;;;;5028181;28;20106;-69
2023/04/17 00:55:09;;;;;;;16.85;15.77;;;;;;;;;;4993626;28;20099;-70
2023/04/17 00:57:35;;;;;;;18.23;17.15;;;;;;;;;;4994244;28;20030;-69
2023/04/17 01:00:00;;;;;;;17.38;16.35;;;;;;;;;;4995202;28;20042;-69
2023/04/17 01:02:26;;;;;;;17.35;16.33;;;;;;;;;;4996348;28;20105;-70
2023/04/17 01:04:52;;;;;;;17.98;16.80;;;;;;;;;;5027419;28;20109;-69
2023/04/17 01:07:17;;;;;;;16.25;15.32;;;;;;;;;;4996061;28;20104;-69
2023/04/17 01:09:43;;;;;;;18.10;16.88;;;;;;;;;;4998074;28;20042;-69
2023/04/17 01:12:18;;;;;;;16.30;15.35;;;;;;;;;;4994384;28;20078;-69
2023/04/17 01:14:44;;;;;;;17.63;16.33;;;;;;;;;;4994288;28;20061;-69
2023/04/17 01:17:10;;;;;;;18.13;16.92;;;;;;;;;;4993754;28;20034;-69
2023/04/17 01:19:35;;;;;;;16.20;15.30;;;;;;;;;;5028454;28;20042;-69
2023/04/17 01:22:00;;;;;;;18.80;17.40;;;;;;;;;;5000516;28;20038;-68
2023/04/17 01:24:26;;;;;;;17.67;16.58;;;;;;;;;;4998187;28;20038;-70
2023/04/17 01:26:51;;;;;;;16.67;15.65;;;;;;;;;;5000620;28;20046;-69
2023/04/17 01:29:17;;;;;;;16.98;15.98;;;;;;;;;;4999104;28;20132;-70
2023/04/17 01:31:42;;;;;;;17.58;16.38;;;;;;;;;;4997117;28;20022;-68
2023/04/17 01:34:07;;;;;;;18.50;17.30;;;;;;;;;;4999022;28;20038;-69
2023/04/17 01:36:32;;;;;;;18.75;17.55;;;;;;;;;;4998485;28;20026;-69
2023/04/17 01:38:58;;;;;;;18.15;17.02;;;;;;;;;;4997892;28;20125;-69
2023/04/17 01:41:23;;;;;;;18.67;17.45;;;;;;;;;;5028609;28;20815;-69
2023/04/17 01:43:49;;;;;;;19.08;17.95;;;;;;;;;;4997373;28;20026;-69
2023/04/17 01:46:14;;;;;;;17.80;16.75;;;;;;;;;;4997141;28;20134;-69
2023/04/17 01:48:40;;;;;;;18.45;17.17;;;;;;;;;;4979597;28;20037;-69
2023/04/17 01:51:05;;;;;;;17.58;16.38;;;;;;;;;;4998485;28;20042;-69
2023/04/17 01:53:32;;;;;;;17.23;16.13;;;;;;;;;;4996173;28;20821;-69
2023/04/17 01:55:59;;;;;;;19.63;17.08;;;;;;;;;;4997629;28;20049;-69
2023/04/17 01:58:24;;;;;;;16.08;15.07;;;;;;;;;;4999397;28;20112;-69
2023/04/17 02:00:50;;;;;;;18.15;17.05;;;;;;;;;;4996299;28;20038;-69
2023/04/17 02:03:16;;;;;;;19.23;17.75;;;;;;;;;;4998431;28;20067;-69
2023/04/17 02:05:47;;;;;;;19.85;18.60;;;;;;;;;;4997366;28;20460;-70
2023/04/17 02:08:13;;;;;;;19.45;18.23;;;;;;;;;;4999617;28;20133;-70
2023/04/17 02:10:40;;;;;;;18.73;17.50;;;;;;;;;;5028316;28;20104;-69
2023/04/17 02:13:06;;;;;;;17.77;16.65;;;;;;;;;;4997466;28;20053;-69
2023/04/17 02:15:31;;;;;;;19.58;18.30;;;;;;;;;;4996391;28;20034;-69
2023/04/17 02:17:56;;;;;;;20.02;18.73;;;;;;;;;;4996840;28;20386;-69
2023/04/17 02:20:22;;;;;;;18.63;17.42;;;;;;;;;;4999948;28;20342;-69
2023/04/17 02:22:47;;;;;;;19.38;18.17;;;;;;;;;;4998902;28;20045;-69
2023/04/17 02:25:13;;;;;;;17.38;16.27;;;;;;;;;;4999932;28;20510;-69
2023/04/17 02:27:39;;;;;;;19.52;18.13;;;;;;;;;;5029064;28;20368;-69
2023/04/17 02:30:04;;;;;;;18.98;17.88;;;;;;;;;;4998278;28;20088;-69
2023/04/17 02:32:30;;;;;;;17.52;16.33;;;;;;;;;;4995331;28;20504;-69
2023/04/17 02:34:55;;;;;;;19.10;17.92;;;;;;;;;;4998937;28;20037;-69
2023/04/17 02:37:20;;;;;;;20.00;18.65;;;;;;;;;;4996893;28;20026;-69
2023/04/17 02:39:46;;;;;;;17.52;16.52;;;;;;;;;;4993007;28;20037;-69
2023/04/17 02:42:11;;;;;;;18.15;16.88;;;;;;;;;;4995011;28;20144;-69
2023/04/17 02:44:38;;;;;;;18.77;17.58;;;;;;;;;;4996676;28;20518;-69
2023/04/17 02:47:04;;;;;;;16.77;15.68;;;;;;;;;;4994693;28;20045;-69
2023/04/17 02:49:30;;;;;;;18.67;17.58;;;;;;;;;;4997564;28;20037;-69
2023/04/17 02:51:55;;;;;;;16.50;15.30;;;;;;;;;;4997137;28;20045;-70
2023/04/17 02:54:20;;;;;;;15.77;14.82;;;;;;;;;;4995516;28;20045;-69
2023/04/17 02:56:46;;;;;;;17.10;16.10;;;;;;;;;;4993884;28;20169;-70
2023/04/17 02:59:12;;;;;;;17.65;16.55;;;;;;;;;;4997617;28;20085;-70
2023/04/17 03:01:39;;;;;;;17.67;16.40;;;;;;;;;;4997900;28;20147;-70
2023/04/17 03:04:05;;;;;;;16.58;15.57;;;;;;;;;;5029437;28;20035;-69
2023/04/17 03:06:30;;;;;;;19.17;17.73;;;;;;;;;;5001916;28;20117;-69
2023/04/17 03:08:56;;;;;;;17.13;16.00;;;;;;;;;;4995468;28;20034;-69
2023/04/17 03:11:21;;;;;;;17.63;16.52;;;;;;;;;;4997340;28;20544;-69
2023/04/17 03:13:47;;;;;;;19.58;18.17;;;;;;;;;;4999859;28;20811;-70
2023/04/17 03:16:12;;;;;;;17.65;16.30;;;;;;;;;;4995723;28;20634;-69
2023/04/17 03:18:40;;;;;;;18.25;16.98;;;;;;;;;;4996281;28;20084;-69
2023/04/17 03:21:06;;;;;;;19.30;17.83;;;;;;;;;;4997183;28;20044;-69
2023/04/17 03:23:32;;;;;;;19.17;17.95;;;;;;;;;;5026644;28;20042;-69
2023/04/17 03:25:57;;;;;;;19.40;18.10;;;;;;;;;;4993006;28;20049;-70
2023/04/17 03:28:23;;;;;;;19.27;17.88;;;;;;;;;;4993498;28;20057;-69
2023/04/17 03:30:49;;;;;;;19.55;18.25;;;;;;;;;;4994921;28;20039;-69
2023/04/17 03:33:16;;;;;;;17.83;16.73;;;;;;;;;;4992754;28;20026;-69
2023/04/17 03:35:41;;;;;;;19.35;18.15;;;;;;;;;;4996780;28;20411;-69
2023/04/17 03:38:07;;;;;;;21.05;19.70;;;;;;;;;;4995002;28;20139;-69
2023/04/17 03:40:33;;;;;;;19.98;18.77;;;;;;;;;;4995603;28;20025;-69
2023/04/17 03:42:58;;;;;;;18.05;16.85;;;;;;;;;;4996423;28;20812;-69
2023/04/17 03:45:24;;;;;;;19.08;17.85;;;;;;;;;;4994330;28;20049;-69
2023/04/17 03:47:49;;;;;;;18.83;17.63;;;;;;;;;;4993749;28;20240;-69
2023/04/17 03:50:15;;;;;;;18.70;17.50;;;;;;;;;;5026326;28;20026;-70
2023/04/17 03:52:40;;;;;;;18.23;17.02;;;;;;;;;;4998124;28;20333;-70
2023/04/17 03:55:07;;;;;;;17.75;16.42;;;;;;;;;;4995527;28;20499;-69
2023/04/17 03:57:32;;;;;;;18.30;17.10;;;;;;;;;;4994550;28;20121;-70
2023/04/17 03:59:57;;;;;;;18.73;17.63;;;;;;;;;;4996331;28;20566;-69
2023/04/17 04:02:23;;;;;;;19.48;18.23;;;;;;;;;;4999181;28;20038;-70
2023/04/17 04:04:49;;;;;;;17.95;16.73;;;;;;;;;;4996791;28;20387;-69
2023/04/17 04:07:15;;;;;;;17.88;16.77;;;;;;;;;;4994999;28;20030;-70
2023/04/17 04:09:40;;;;;;;19.15;18.02;;;;;;;;;;4993420;28;20044;-69
2023/04/17 04:12:07;;;;;;;19.15;17.92;;;;;;;;;;4995302;28;20046;-70
2023/04/17 04:14:32;;;;;;;19.83;18.63;;;;;;;;;;4997987;28;20038;-70
2023/04/17 04:16:58;;;;;;;20.90;19.45;;;;;;;;;;4994393;28;20483;-69
2023/04/17 04:19:23;;;;;;;19.98;18.67;;;;;;;;;;4995000;28;20476;-69
2023/04/17 04:21:49;;;;;;;20.35;19.05;;;;;;;;;;4995851;28;20099;-69
2023/04/17 04:24:14;;;;;;;20.48;19.17;;;;;;;;;;4992927;28;20042;-69
2023/04/17 04:26:39;;;;;;;20.77;19.27;;;;;;;;;;4996011;28;20118;-69
2023/04/17 04:29:05;;;;;;;19.02;17.83;;;;;;;;;;4996804;28;20070;-70
2023/04/17 04:31:31;;;;;;;19.65;18.42;;;;;;;;;;4996139;28;20131;-69
2023/04/17 04:33:57;;;;;;;21.00;19.67;;;;;;;;;;4995175;28;20054;-69
2023/04/17 04:36:23;;;;;;;18.98;17.77;;;;;;;;;;4994456;28;20052;-69
2023/04/17 04:38:49;;;;;;;19.70;18.17;;;;;;;;;;4995014;28;20034;-69
2023/04/17 04:41:16;;;;;;;18.35;17.25;;;;;;;;;;4996030;28;20069;-69
2023/04/17 04:43:42;;;;;;;23.23;21.55;;;;;;;;;;4991087;28;20057;-70
2023/04/17 04:46:09;;;;;;;19.35;18.08;;;;;;;;;;4994575;28;20079;-69
2023/04/17 04:48:34;;;;;;;22.13;20.52;;;;;;;;;;4995219;28;20591;-69
2023/04/17 04:51:00;;;;;;;18.73;17.52;;;;;;;;;;4997473;28;20052;-70
2023/04/17 04:53:25;;;;;;;19.13;17.95;;;;;;;;;;4997217;28;20341;-70
2023/04/17 04:55:50;;;;;;;19.27;18.08;;;;;;;;;;4992904;28;20041;-70
2023/04/17 04:58:16;;;;;;;20.85;18.98;;;;;;;;;;4994240;28;20030;-70
2023/04/17 05:00:42;;;;;;;16.60;15.60;;;;;;;;;;5001996;28;20432;-70
2023/04/17 05:03:07;;;;;;;17.90;16.73;;;;;;;;;;4991705;28;20034;-71
2023/04/17 05:05:34;;;;;;;18.00;16.80;;;;;;;;;;4995152;28;20045;-70
2023/04/17 05:08:00;;;;;;;18.08;16.88;;;;;;;;;;4993507;28;20060;-70
2023/04/17 05:10:25;;;;;;;16.70;15.60;;;;;;;;;;4995843;28;20115;-70
2023/04/17 05:12:51;;;;;;;16.95;15.50;;;;;;;;;;4994480;28;20042;-70
2023/04/17 05:15:16;;;;;;;16.77;15.75;;;;;;;;;;4997443;28;20034;-67
2023/04/17 05:17:42;;;;;;;16.65;15.57;;;;;;;;;;4994969;28;20486;-69
2023/04/17 05:20:11;;;;;;;16.75;15.70;;;;;;;;;;4995725;28;20196;-69
2023/04/17 05:22:36;;;;;;;17.42;16.40;;;;;;;;;;4995575;28;20283;-68
2023/04/17 05:25:03;;;;;;;16.73;15.68;;;;;;;;;;4994407;28;20800;-68
2023/04/17 05:27:29;;;;;;;16.92;15.82;;;;;;;;;;4994229;28;20589;-68
2023/04/17 05:29:55;;;;;;;18.15;16.85;;;;;;;;;;4998036;28;20049;-69
2023/04/17 05:32:20;;;;;;;17.73;16.52;;;;;;;;;;4992613;28;20042;-69
2023/04/17 05:34:46;;;;;;;17.02;16.02;;;;;;;;;;4995832;28;20042;-67
2023/04/17 05:37:11;;;;;;;17.95;16.77;;;;;;;;;;4994211;28;20628;-67
2023/04/17 05:39:37;;;;;;;17.13;16.02;;;;;;;;;;4995125;28;20623;-67
2023/04/17 05:42:02;;;;;;;18.25;16.95;;;;;;;;;;5011018;28;20042;-68
2023/04/17 05:44:28;;;;;;;17.63;16.52;;;;;;;;;;4993543;28;20841;-68
2023/04/17 05:46:56;;;;;;;16.73;15.63;;;;;;;;;;4994081;28;20360;-67
2023/04/17 05:49:21;;;;;;;18.50;17.30;;;;;;;;;;4993255;28;20601;-67
2023/04/17 05:51:47;;;;;;;17.05;15.95;;;;;;;;;;4993822;28;20065;-68
2023/04/17 05:54:12;;;;;;;17.33;16.27;;;;;;;;;;4989322;28;20076;-68
2023/04/17 05:56:38;;;;;;;16.55;15.55;;;;;;;;;;4992705;28;20030;-67
2023/04/17 05:59:03;;;;;;;16.70;15.70;;;;;;;;;;4990051;28;20034;-68
2023/04/17 06:01:29;;;;;;;17.80;16.60;;;;;;;;;;4991541;28;20095;-67
2023/04/17 06:03:55;;;;;;;19.15;17.85;;;;;;;;;;4995505;28;20099;-67
2023/04/17 06:06:20;;;;;;;19.65;18.25;;;;;;;;;;4996162;28;20636;-67
2023/04/17 06:08:46;;;;;;;19.08;17.80;;;;;;;;;;4998652;28;20088;-68
2023/04/17 06:11:11;;;;;;;18.73;17.42;;;;;;;;;;4997338;28;20046;-68
2023/04/17 06:13:37;;;;;;;21.10;19.80;;;;;;;;;;4996393;28;20057;-67
2023/04/17 06:16:03;;;;;;;21.45;20.05;;;;;;;;;;4994374;28;20695;-67
2023/04/17 06:18:28;;;;;;;23.42;21.80;;;;;;;;;;4999272;28;20034;-68
2023/04/17 06:20:54;;;;;;;22.92;21.23;;;;;;;;;;5000381;28;20048;-69
2023/04/17 06:23:20;;;;;;;21.40;20.10;;;;;;;;;;4994995;28;20065;-67
2023/04/17 06:25:45;;;;;;;22.20;20.90;;;;;;;;;;4998792;28;20044;-67
2023/04/17 06:28:11;;;;;;;22.40;21.00;;;;;;;;;;4996870;28;20035;-67
2023/04/17 06:30:36;;;;;;;21.27;19.77;;;;;;;;;;4995121;28;20041;-68
2023/04/17 06:33:02;;;;;;;20.15;18.95;;;;;;;;;;4996997;28;20474;-69
2023/04/17 06:35:27;;;;;;;20.40;19.20;;;;;;;;;;4994534;28;20807;-69
2023/04/17 06:37:52;;;;;;;21.10;19.77;;;;;;;;;;4999315;28;20049;-68
2023/04/17 06:40:18;;;;;;;19.45;18.23;;;;;;;;;;4999112;28;20467;-68
2023/04/17 06:42:43;;;;;;;23.02;21.08;;;;;;;;;;4998552;28;20038;-68
2023/04/17 06:45:09;;;;;;;21.55;20.20;;;;;;;;;;4994736;28;20575;-67
2023/04/17 06:47:34;;;;;;;21.98;19.65;;;;;;;;;;4994897;28;20053;-67
2023/04/17 06:50:00;;;;;;;19.23;18.00;;;;;;;;;;4998716;28;20070;-68
2023/04/17 06:52:25;;;;;;;19.90;18.70;;;;;;;;;;4997518;28;20072;-68
2023/04/17 06:54:54;;;;;;;19.52;18.33;;;;;;;;;;4998796;28;20041;-68
2023/04/17 06:57:20;;;;;;;18.42;17.20;;;;;;;;;;4997607;28;20120;-68
2023/04/17 06:59:46;;;;;;;19.02;17.75;;;;;;;;;;4994424;28;20045;-68
2023/04/17 07:02:12;;;;;;;19.42;17.67;;;;;;;;;;4994458;28;20034;-68
2023/04/17 07:04:37;;;;;;;19.75;18.48;;;;;;;;;;4995991;28;20456;-68
2023/04/17 07:07:02;;;;;;;19.70;18.33;;;;;;;;;;4997169;28;20583;-68
2023/04/17 07:09:28;;;;;;;17.80;16.70;;;;;;;;;;4996883;28;20082;-68
2023/04/17 07:11:53;;;;;;;16.10;15.10;;;;;;;;;;4995648;28;20037;-68
2023/04/17 07:14:18;;;;;;;18.45;17.23;;;;;;;;;;4996051;28;20371;-69
2023/04/17 07:16:44;;;;;;;17.33;16.23;;;;;;;;;;4992792;28;20038;-68
2023/04/17 07:19:09;;;;;;;15.25;14.25;;;;;;;;;;4994605;28;20049;-67
2023/04/17 07:21:35;;;;;;;14.38;13.32;;;;;;;;;;4994993;28;20636;-68
2023/04/17 07:24:00;;;;;;;15.57;14.35;;;;;;;;;;4997342;28;20037;-67
2023/04/17 07:26:26;;;;;;;15.93;14.82;;;;;;;;;;4994539;28;20030;-67
2023/04/17 07:28:51;;;;;;;14.48;13.57;;;;;;;;;;4997047;28;20083;-67
2023/04/17 07:31:17;;;;;;;15.95;14.73;;;;;;;;;;4996948;28;20034;-68
2023/04/17 07:33:42;;;;;;;15.27;14.23;;;;;;;;;;4992846;28;20120;-68
2023/04/17 07:36:10;;;;;;;14.10;12.88;;;;;;;;;;4996692;28;20074;-69
2023/04/17 07:38:35;;;;;;;14.48;13.23;;;;;;;;;;4995567;28;20037;-68
2023/04/17 07:41:00;;;;;;;13.15;12.27;;;;;;;;;;4996661;28;20456;-62
2023/04/17 07:43:27;;;;;;;15.35;14.18;;;;;;;;;;4998137;28;20104;-62
2023/04/17 07:45:52;;;;;;;15.00;14.00;;;;;;;;;;4992636;28;20135;-62
2023/04/17 07:48:18;;;;;;;14.88;13.70;;;;;;;;;;4994812;28;20748;-62
2023/04/17 07:50:44;;;;;;;13.77;12.88;;;;;;;;;;4996334;28;20033;-62
2023/04/17 07:53:10;;;;;;;15.95;14.80;;;;;;;;;;4994182;28;20116;-67
2023/04/17 07:55:35;;;;;;;16.75;15.52;;;;;;;;;;4994738;28;20034;-68
2023/04/17 07:58:05;;;;;;;14.07;13.18;;;;;;;;;;4996674;28;20519;-62
2023/04/17 08:00:31;;;;;;;13.98;13.00;;;;;;;;;;4997424;28;20119;-61
2023/04/17 08:02:57;;;;;;;13.60;12.73;;;;;;;;;;5024027;28;20076;-61
2023/04/17 08:05:22;;;;;;;14.38;13.32;;;;;;;;;;4994731;28;20030;-62
2023/04/17 08:07:48;;;;;;;15.95;14.38;;;;;;;;;;4996511;28;20412;-62
2023/04/17 08:10:13;;;;;;;13.05;12.25;;;;;;;;;;4997911;28;20041;-61
2023/04/17 08:12:39;;;;;;;13.85;12.82;;;;;;;;;;4995422;28;20120;-62
2023/04/17 08:15:04;;;;;;;13.52;12.63;;;;;;;;;;4993484;28;20080;-61
2023/04/17 08:17:30;;;;;;;14.25;13.18;;;;;;;;;;4996119;28;20616;-61
2023/04/17 08:19:56;;;;;;;14.75;13.65;;;;;;;;;;4996904;28;20045;-62
2023/04/17 08:22:23;;;;;;;14.43;13.40;;;;;;;;;;4995189;28;20034;-66
2023/04/17 08:24:49;;;;;;;14.38;13.43;;;;;;;;;;5001323;28;20038;-65
2023/04/17 08:27:15;;;;;;;16.92;13.63;;;;;;;;;;4996746;28;20046;-62
2023/04/17 08:29:42;;;;;;;13.93;12.82;;;;;;;;;;4995571;28;20049;-67
2023/04/17 08:32:07;;;;;;;12.55;11.75;;;;;;;;;;4995222;28;20042;-67
2023/04/17 08:34:34;;;;;;;14.90;13.90;;;;;;;;;;4994222;28;20372;-66
2023/04/17 08:37:00;;;;;;;13.73;12.73;;;;;;;;;;5000140;28;20599;-62
2023/04/17 08:39:26;;;;;;;14.35;12.57;;;;;;;;;;4997885;28;20133;-68
2023/04/17 08:41:59;;;;;;;15.65;14.57;;;;;;;;;;4996597;28;20547;-67
2023/04/17 08:44:25;;;;;;;16.52;15.23;;;;;;;;;;4997182;28;20515;-62
2023/04/17 08:46:51;;;;;;;17.00;15.77;;;;;;;;;;4996532;28;20080;-67
2023/04/17 08:49:17;;;;;;;15.85;14.70;;;;;;;;;;4995607;28;20390;-68
2023/04/17 08:51:42;;;;;;;15.32;14.32;;;;;;;;;;4994799;28;20035;-61
2023/04/17 08:54:08;;;;;;;16.77;15.68;;;;;;;;;;4993406;28;20045;-61
2023/04/17 08:56:33;;;;;;;16.83;15.52;;;;;;;;;;4995513;28;20121;-61
2023/04/17 08:58:58;;;;;;;13.90;13.00;;;;;;;;;;5027051;28;20411;-61
2023/04/17 09:01:24;;;;;;;14.70;13.60;;;;;;;;;;4992908;28;20046;-62
2023/04/17 09:03:52;;;;;;;14.18;13.20;;;;;;;;;;5012062;28;20358;-61
2023/04/17 09:06:17;;;;;;;16.58;15.35;;;;;;;;;;4993184;28;20038;-61
2023/04/17 09:09:00;;;;;;;14.80;13.90;;;;;;;;;;4995277;28;20044;-61
2023/04/17 09:11:26;;;;;;;15.30;14.30;;;;;;;;;;4991927;28;20038;-61
2023/04/17 09:13:52;;;;;;;16.45;15.35;;;;;;;;;;4993784;28;20516;-61
2023/04/17 09:16:23;;;;;;;13.48;12.68;;;;;;;;;;4988480;28;20041;-62
2023/04/17 09:18:48;;;;;;;15.27;14.27;;;;;;;;;;4993252;28;20460;-61
2023/04/17 09:21:17;;;;;;;15.80;14.55;;;;;;;;;;4994769;28;20112;-67
2023/04/17 09:23:49;;;;;;;12.88;12.07;;;;;;;;;;4990407;28;20030;-66
2023/04/17 09:26:25;;;;;;;16.02;15.02;;;;;;;;;;4994364;28;20026;-61
2023/04/17 09:29:09;;;;;;;15.65;14.65;;;;;;;;;;4994621;28;20615;-66
2023/04/17 09:31:36;;;;;;;14.35;13.43;;;;;;;;;;4997101;28;20038;-60
2023/04/17 09:34:02;;;;;;;14.55;13.57;;;;;;;;;;4987557;28;20045;-61
2023/04/17 09:36:30;;;;;;;14.50;13.50;;;;;;;;;;4992189;28;20042;-61
2023/04/17 09:38:58;;;;;;;14.20;13.20;;;;;;;;;;4995212;28;20048;-61
2023/04/17 09:41:41;;;;;;;14.63;13.65;;;;;;;;;;4994401;28;20057;-61
2023/04/17 09:44:08;;;;;;;12.75;11.85;;;;;;;;;;4997203;28;20629;-61
2023/04/17 09:46:40;;;;;;;13.75;12.85;;;;;;;;;;4996053;28;20152;-62
2023/04/17 09:49:14;;;;;;;13.80;12.93;;;;;;;;;;4997967;28;20034;-62
2023/04/17 09:51:41;;;;;;;14.20;13.30;;;;;;;;;;4996360;28;20367;-61
2023/04/17 09:54:09;;;;;;;13.15;12.32;;;;;;;;;;4997603;28;20124;-62
2023/04/17 09:56:36;;;;;;;11.68;10.95;;;;;;;;;;4993865;28;20046;-62
2023/04/17 09:59:04;;;;;;;11.93;11.23;;;;;;;;;;4994815;28;20160;-62
2023/04/17 10:01:35;;;;;;;13.32;12.43;;;;;;;;;;4992949;28;20049;-62
2023/04/17 10:04:01;;;;;;;;;;;;;;;;;;4996272;28;20029;-62
2023/04/17 10:06:27;;;;;;;11.82;11.07;;;;;;;;;;5000537;28;19925;-62
2023/04/17 10:08:54;;;;;;;13.85;12.95;;;;;;;;;;4997574;28;20112;-61
2023/04/17 10:11:22;;;;;;;13.45;12.63;;;;;;;;;;4995544;28;20108;-61
2023/04/17 10:13:54;;;;;;;14.77;13.88;;;;;;;;;;4996881;28;20133;-61
2023/04/17 10:16:32;;;;;;;12.68;11.77;;;;;;;;;;4999136;28;20799;-61
2023/04/17 10:19:26;;;;;;;12.60;11.80;;;;;;;;;;4995653;28;20042;-61
2023/04/17 10:22:19;;;;;;;13.85;12.82;;;;;;;;;;5026723;28;20072;-61
2023/04/17 10:24:46;;;;;;;12.85;11.95;;;;;;;;;;4995265;28;20034;-61
2023/04/17 10:27:27;;;;;;;13.43;12.30;;;;;;;;;;4999039;28;20045;-66
2023/04/17 10:29:57;;;;;;;12.05;11.25;;;;;;;;;;4998690;28;20751;-68
2023/04/17 10:32:24;;;;;;;12.38;11.57;;;;;;;;;;4996920;28;20389;-67
2023/04/17 10:34:51;;;;;;;13.98;11.68;;;;;;;;;;4996635;28;20460;-61
2023/04/17 10:37:17;;;;;;;12.77;11.93;;;;;;;;;;4996718;28;20033;-61
2023/04/17 10:39:53;;;;;;;13.43;12.55;;;;;;;;;;4997517;28;20033;-61
2023/04/17 10:42:20;;;;;;;11.80;11.10;;;;;;;;;;4998004;28;20081;-66
2023/04/17 10:44:46;;;;;;;13.82;12.77;;;;;;;;;;4997360;28;20056;-60
2023/04/17 10:47:15;;;;;;;12.77;11.93;;;;;;;;;;4993327;28;20164;-66
2023/04/17 10:49:54;;;;;;;12.68;11.68;;;;;;;;;;4992441;28;20614;-60
2023/04/17 10:52:33;;;;;;;12.90;12.00;;;;;;;;;;4995221;28;20121;-65
2023/04/17 10:55:04;;;;;;;11.77;10.88;;;;;;;;;;4997513;28;20068;-65
2023/04/17 10:57:48;;;;;;;;;;;;;;;;;;4997630;28;20041;-66
2023/04/17 11:00:14;;;;;;;10.73;10.02;;;;;;;;;;4997864;28;20300;-65
2023/04/17 11:02:40;;;;;;;11.63;10.82;;;;;;;;;;4996722;28;20045;-66
2023/04/17 11:05:06;;;;;;;12.40;11.50;;;;;;;;;;4999245;28;20100;-65
2023/04/17 11:07:34;;;;;;;10.50;9.80;;;;;;;;;;4997058;28;20102;-66
2023/04/17 11:10:05;;;;;;;11.93;11.13;;;;;;;;;;4997435;28;20045;-67
2023/04/17 11:12:30;;;;;;;13.35;12.35;;;;;;;;;;4994740;28;20463;-66
2023/04/17 11:15:03;;;;;;;10.73;9.93;;;;;;;;;;4996511;28;20046;-65
2023/04/17 11:17:28;;;;;;;11.40;10.60;;;;;;;;;;5008440;28;20088;-66
2023/04/17 11:19:58;;;;;;;10.02;9.43;;;;;;;;;;4996708;28;20046;-66
2023/04/17 11:22:24;;;;;;;10.05;9.45;;;;;;;;;;4994710;28;20034;-66
2023/04/17 11:24:50;;;;;;;10.25;9.55;;;;;;;;;;4998599;28;20030;-67
2023/04/17 11:27:16;;;;;;;12.38;11.57;;;;;;;;;;4994872;28;20066;-66
2023/04/17 11:29:43;;;;;;;11.23;10.52;;;;;;;;;;4993270;28;20124;-67
2023/04/17 11:32:10;;;;;;;10.75;10.05;;;;;;;;;;4995837;28;20050;-67
2023/04/17 11:34:36;;;;;;;10.90;10.20;;;;;;;;;;4995492;28;20034;-68
2023/04/17 11:37:02;;;;;;;11.20;10.45;;;;;;;;;;4994307;28;20075;-66
2023/04/17 11:39:32;;;;;;;16.20;15.30;;;;;;;;;;4994747;28;20030;-67
2023/04/17 11:41:57;;;;;;;17.95;16.95;;;;;;;;;;4996203;28;20037;-67
2023/04/17 11:44:24;;;;;;;23.63;22.33;;;;;;;;;;4998929;28;20388;-68
2023/04/17 11:46:50;;;;;;;22.15;20.95;;;;;;;;;;4996431;28;20021;-67
2023/04/17 11:49:23;;;;;;;18.67;17.67;;;;;;;;;;5025583;28;20486;-67
2023/04/17 11:51:48;;;;;;;21.00;19.90;;;;;;;;;;4994118;28;20038;-67
2023/04/17 11:54:27;;;;;;;22.42;21.13;;;;;;;;;;4995055;28;20040;-67
2023/04/17 11:57:13;;;;;;;16.83;15.88;;;;;;;;;;4994875;28;20053;-65
2023/04/17 11:59:40;;;;;;;15.73;14.68;;;;;;;;;;4994043;28;20041;-66
2023/04/17 12:02:07;;;;;;;15.20;14.30;;;;;;;;;;4994697;28;20073;-67
2023/04/17 12:04:35;;;;;;;15.77;14.88;;;;;;;;;;4992612;28;20039;-67
2023/04/17 12:07:01;;;;;;;15.05;14.15;;;;;;;;;;4993432;28;20095;-67
2023/04/17 12:09:30;;;;;;;13.30;12.50;;;;;;;;;;4994628;28;20468;-67
2023/04/17 12:12:13;;;;;;;17.42;16.42;;;;;;;;;;4994356;28;20080;-68
2023/04/17 12:14:39;;;;;;;23.27;21.73;;;;;;;;;;4999560;28;20040;-68
2023/04/17 12:17:04;;;;;;;18.48;17.48;;;;;;;;;;4997523;28;20457;-68
2023/04/17 12:19:30;;;;;;;19.63;18.52;;;;;;;;;;4999033;28;20377;-68
2023/04/17 12:21:56;;;;;;;19.67;18.58;;;;;;;;;;4998060;28;20151;-68
2023/04/17 12:24:23;;;;;;;24.15;22.85;;;;;;;;;;4994936;28;20314;-67
2023/04/17 12:26:49;;;;;;;22.15;20.95;;;;;;;;;;4997455;28;20124;-66
2023/04/17 12:29:15;;;;;;;25.38;24.05;;;;;;;;;;4994207;28;20128;-64
2023/04/17 12:31:41;;;;;;;23.30;22.02;;;;;;;;;;4993059;28;20049;-64
2023/04/17 12:34:06;;;;;;;24.33;23.02;;;;;;;;;;4996032;28;20174;-64
2023/04/17 12:36:32;;;;;;;23.23;22.02;;;;;;;;;;5026202;28;20117;-63
2023/04/17 12:38:57;;;;;;;21.45;20.25;;;;;;;;;;4995622;28;20041;-64
2023/04/17 12:41:25;;;;;;;22.33;21.13;;;;;;;;;;4994837;28;20045;-64
2023/04/17 12:43:50;;;;;;;20.10;19.00;;;;;;;;;;4994807;28;20034;-67
2023/04/17 12:46:16;;;;;;;18.23;17.23;;;;;;;;;;4994651;28;20367;-67
2023/04/17 12:48:41;;;;;;;17.95;16.95;;;;;;;;;;4992808;28;20034;-68
2023/04/17 12:51:07;;;;;;;21.02;19.90;;;;;;;;;;4992257;28;20524;-68
2023/04/17 12:53:32;;;;;;;22.13;20.92;;;;;;;;;;4994451;28;20030;-68
2023/04/17 12:55:58;;;;;;;20.83;19.65;;;;;;;;;;4993971;28;20027;-68
2023/04/17 12:58:23;;;;;;;18.95;17.85;;;;;;;;;;4996147;28;20081;-67
2023/04/17 13:00:48;;;;;;;22.52;21.33;;;;;;;;;;4997487;28;20038;-67
2023/04/17 13:03:14;;;;;;;23.67;22.38;;;;;;;;;;4995462;28;20033;-67
2023/04/17 13:05:39;;;;;;;21.48;20.27;;;;;;;;;;4993773;28;20034;-67
2023/04/17 13:08:05;;;;;;;24.23;22.92;;;;;;;;;;4995195;28;20522;-68
2023/04/17 13:10:30;;;;;;;22.90;21.70;;;;;;;;;;4995352;28;20038;-67
2023/04/17 13:12:56;;;;;;;22.02;20.83;;;;;;;;;;4994283;28;20049;-67
2023/04/17 13:15:21;;;;;;;23.35;22.05;;;;;;;;;;5000454;28;20049;-68
2023/04/17 13:17:46;;;;;;;19.05;18.00;;;;;;;;;;4997801;28;20030;-68
2023/04/17 13:20:12;;;;;;;23.33;22.10;;;;;;;;;;4996287;28;20104;-68
2023/04/17 13:22:38;;;;;;;24.33;23.02;;;;;;;;;;4998912;28;20083;-68
2023/04/17 13:25:03;;;;;;;24.73;23.42;;;;;;;;;;4998706;28;20492;-67
2023/04/17 13:27:29;;;;;;;25.88;24.48;;;;;;;;;;4995793;28;20145;-68
2023/04/17 13:29:55;;;;;;;25.60;24.23;;;;;;;;;;4998382;28;20479;-68
2023/04/17 13:32:21;;;;;;;26.17;24.77;;;;;;;;;;4997642;28;20121;-67
2023/04/17 13:34:46;;;;;;;23.75;22.45;;;;;;;;;;4995939;28;20045;-68
2023/04/17 13:37:13;;;;;;;25.15;23.85;;;;;;;;;;4997000;28;20035;-67
2023/04/17 13:39:39;;;;;;;25.33;23.92;;;;;;;;;;4996398;28;20044;-68
2023/04/17 13:42:04;;;;;;;26.33;24.92;;;;;;;;;;4998676;28;20046;-68
2023/04/17 13:44:31;;;;;;;25.00;23.70;;;;;;;;;;5000151;28;20029;-68
2023/04/17 13:46:56;;;;;;;27.08;25.48;;;;;;;;;;4998057;28;20065;-68
2023/04/17 13:49:22;;;;;;;24.25;22.90;;;;;;;;;;5000694;28;20452;-68
2023/04/17 13:51:47;;;;;;;24.52;23.23;;;;;;;;;;4998410;28;20037;-68
2023/04/17 13:54:13;;;;;;;19.70;18.60;;;;;;;;;;4999953;28;20085;-69
2023/04/17 13:56:38;;;;;;;13.80;13.00;;;;;;;;;;4999506;28;20049;-69
2023/04/17 13:59:06;;;;;;;13.77;12.98;;;;;;;;;;4996671;28;20034;-68
2023/04/17 14:01:32;;;;;;;13.27;12.45;;;;;;;;;;4996757;28;20040;-68
2023/04/17 14:04:00;;;;;;;12.98;12.18;;;;;;;;;;4995871;28;20125;-67
2023/04/17 14:06:27;;;;;;;13.00;12.25;;;;;;;;;;4998615;28;20027;-68
2023/04/17 14:08:56;;;;;;;14.40;13.60;;;;;;;;;;4996279;28;20294;-68
2023/04/17 14:11:23;;;;;;;12.20;11.50;;;;;;;;;;4995274;28;20030;-69
2023/04/17 14:13:49;;;;;;;14.98;14.07;;;;;;;;;;4999289;28;20088;-68
2023/04/17 14:16:14;;;;;;;14.18;13.38;;;;;;;;;;4996499;28;20038;-68